createdAt,value
2022-12-18T00:23:36.453Z,23.2
2022-12-18T00:53:34.267Z,25.5
2022-12-18T01:23:32.007Z,25.8
2022-12-18T01:53:30.568Z,21.1
2022-12-18T02:23:34.729Z,22.4
2022-12-18T02:53:29.181Z,26.2
2022-12-18T03:23:26.517Z,20.7
2022-12-18T03:53:28.793Z,19.8
2022-12-18T04:23:22.387Z,19.2
2022-12-18T04:53:20.796Z,21.3
2022-12-18T05:23:19.353Z,20.2
2022-12-18T05:53:18.359Z,21.9
2022-12-18T06:23:19.520Z,17.7
2022-12-18T06:53:14.985Z,16
2022-12-18T07:23:13.289Z,13.4
2022-12-18T07:53:12.053Z,13.8
2022-12-18T08:23:10.446Z,11.5
2022-12-18T08:53:11.015Z,11.6
2022-12-18T09:23:07.105Z,11.4
2022-12-18T09:53:09.114Z,11.8
2022-12-18T10:23:08.016Z,15
2022-12-18T10:53:12.112Z,13.4
2022-12-18T11:23:08.844Z,13.7
2022-12-18T11:53:05.631Z,12
2022-12-18T12:23:03.038Z,13
2022-12-18T12:53:00.306Z,13.1
2022-12-18T13:22:56.538Z,13.1
2022-12-18T13:52:55.900Z,15
2022-12-18T14:22:53.789Z,13.7
2022-12-18T14:52:51.508Z,14.2
2022-12-18T15:22:51.924Z,18.5
2022-12-18T15:52:50.384Z,18.6
2022-12-18T16:22:47.900Z,16.8
2022-12-18T16:52:46.067Z,16.9
2022-12-18T17:22:44.644Z,16.8
2022-12-18T17:52:43.618Z,16.2
2022-12-18T18:22:42.230Z,21.8
2022-12-18T18:52:48.411Z,16.8
2022-12-18T19:22:40.424Z,20.9
2022-12-18T19:52:40.381Z,20.9
2022-12-18T20:22:38.308Z,20.2
2022-12-18T20:52:36.183Z,19.8
2022-12-18T21:22:35.113Z,21.9
2022-12-18T21:52:33.587Z,22
2022-12-18T22:22:32.725Z,22.4
2022-12-18T22:52:31.494Z,23.9
2022-12-18T23:22:30.357Z,21
2022-12-18T23:52:29.395Z,26.4
